sensor_id;sensor_type;location;lat;lon;timestamp;P1;durP1;ratioP1;P2;durP2;ratioP2
63276;SDS011;49403;51.046;13.780;2023-04-24T00:00:11;5.57;;;4.30;;
63276;SDS011;49403;51.046;13.780;2023-04-24T00:00:44;6.45;;;4.47;;
63276;SDS011;49403;51.046;13.780;2023-04-24T00:01:15;6.03;;;4.47;;
63276;SDS011;49403;51.046;13.780;2023-04-24T00:01:47;6.55;;;4.57;;
63276;SDS011;49403;51.046;13.780;2023-04-24T00:02:18;5.50;;;4.40;;
63276;SDS011;49403;51.046;13.780;2023-04-24T00:02:49;7.70;;;4.38;;
63276;SDS011;49403;51.046;13.780;2023-04-24T00:03:20;6.90;;;4.28;;
63276;SDS011;49403;51.046;13.780;2023-04-24T00:03:52;7.55;;;4.80;;
63276;SDS011;49403;51.046;13.780;2023-04-24T00:04:23;6.45;;;4.45;;
63276;SDS011;49403;51.046;13.780;2023-04-24T00:04:56;6.10;;;4.30;;
63276;SDS011;49403;51.046;13.780;2023-04-24T00:05:27;6.78;;;4.40;;
63276;SDS011;49403;51.046;13.780;2023-04-24T00:05:58;7.32;;;4.70;;
63276;SDS011;49403;51.046;13.780;2023-04-24T00:06:29;9.45;;;4.65;;
63276;SDS011;49403;51.046;13.780;2023-04-24T00:07:03;5.95;;;4.40;;
63276;SDS011;49403;51.046;13.780;2023-04-24T00:07:34;5.75;;;4.20;;
63276;SDS011;49403;51.046;13.780;2023-04-24T00:08:05;6.72;;;4.40;;
63276;SDS011;49403;51.046;13.780;2023-04-24T00:08:36;8.48;;;4.40;;
63276;SDS011;49403;51.046;13.780;2023-04-24T00:09:08;7.28;;;4.40;;
63276;SDS011;49403;51.046;13.780;2023-04-24T00:09:42;7.05;;;4.78;;
63276;SDS011;49403;51.046;13.780;2023-04-24T00:10:14;8.77;;;4.75;;
63276;SDS011;49403;51.046;13.780;2023-04-24T00:10:45;7.65;;;4.32;;
63276;SDS011;49403;51.046;13.780;2023-04-24T00:11:16;6.40;;;4.75;;
63276;SDS011;49403;51.046;13.780;2023-04-24T00:11:47;5.78;;;4.70;;
63276;SDS011;49403;51.046;13.780;2023-04-24T00:12:18;6.80;;;4.82;;
63276;SDS011;49403;51.046;13.780;2023-04-24T00:12:49;7.63;;;4.50;;
63276;SDS011;49403;51.046;13.780;2023-04-24T00:13:20;8.05;;;4.68;;
63276;SDS011;49403;51.046;13.780;2023-04-24T00:13:51;6.03;;;4.40;;
63276;SDS011;49403;51.046;13.780;2023-04-24T00:14:22;6.90;;;4.50;;
63276;SDS011;49403;51.046;13.780;2023-04-24T00:14:53;6.20;;;4.70;;
63276;SDS011;49403;51.046;13.780;2023-04-24T00:15:24;5.22;;;4.25;;
63276;SDS011;49403;51.046;13.780;2023-04-24T00:15:55;6.80;;;4.40;;
63276;SDS011;49403;51.046;13.780;2023-04-24T00:16:26;6.28;;;5.00;;
63276;SDS011;49403;51.046;13.780;2023-04-24T00:16:58;5.32;;;4.38;;
63276;SDS011;49403;51.046;13.780;2023-04-24T00:17:28;5.93;;;4.53;;
63276;SDS011;49403;51.046;13.780;2023-04-24T00:18:00;6.35;;;4.60;;
63276;SDS011;49403;51.046;13.780;2023-04-24T00:18:32;6.53;;;4.53;;
63276;SDS011;49403;51.046;13.780;2023-04-24T00:19:03;5.93;;;4.40;;
63276;SDS011;49403;51.046;13.780;2023-04-24T00:19:35;6.25;;;4.68;;
63276;SDS011;49403;51.046;13.780;2023-04-24T00:20:07;6.50;;;4.75;;
63276;SDS011;49403;51.046;13.780;2023-04-24T00:20:38;6.60;;;4.35;;
63276;SDS011;49403;51.046;13.780;2023-04-24T00:21:09;6.47;;;4.57;;
63276;SDS011;49403;51.046;13.780;2023-04-24T00:21:40;8.23;;;4.70;;
63276;SDS011;49403;51.046;13.780;2023-04-24T00:22:11;7.78;;;4.93;;
63276;SDS011;49403;51.046;13.780;2023-04-24T00:22:43;8.52;;;4.50;;
63276;SDS011;49403;51.046;13.780;2023-04-24T00:23:14;6.60;;;4.50;;
63276;SDS011;49403;51.046;13.780;2023-04-24T00:23:45;5.95;;;4.50;;
63276;SDS011;49403;51.046;13.780;2023-04-24T00:24:17;6.07;;;4.68;;
63276;SDS011;49403;51.046;13.780;2023-04-24T00:24:48;6.05;;;4.50;;
63276;SDS011;49403;51.046;13.780;2023-04-24T00:25:19;7.57;;;4.80;;
63276;SDS011;49403;51.046;13.780;2023-04-24T00:25:50;7.35;;;4.95;;
63276;SDS011;49403;51.046;13.780;2023-04-24T00:26:21;6.82;;;4.63;;
63276;SDS011;49403;51.046;13.780;2023-04-24T00:26:53;6.80;;;4.60;;
63276;SDS011;49403;51.046;13.780;2023-04-24T00:27:24;8.75;;;4.50;;
63276;SDS011;49403;51.046;13.780;2023-04-24T00:27:55;6.50;;;4.75;;
63276;SDS011;49403;51.046;13.780;2023-04-24T00:28:26;6.32;;;4.75;;
63276;SDS011;49403;51.046;13.780;2023-04-24T00:28:57;6.03;;;4.57;;
63276;SDS011;49403;51.046;13.780;2023-04-24T00:29:28;5.88;;;4.75;;
63276;SDS011;49403;51.046;13.780;2023-04-24T00:29:59;6.57;;;4.72;;
63276;SDS011;49403;51.046;13.780;2023-04-24T00:30:30;12.18;;;5.72;;
63276;SDS011;49403;51.046;13.780;2023-04-24T00:31:01;7.38;;;5.20;;
63276;SDS011;49403;51.046;13.780;2023-04-24T00:31:32;9.23;;;5.25;;
63276;SDS011;49403;51.046;13.780;2023-04-24T00:32:04;7.40;;;5.20;;
63276;SDS011;49403;51.046;13.780;2023-04-24T00:32:35;8.10;;;4.75;;
63276;SDS011;49403;51.046;13.780;2023-04-24T00:33:06;7.22;;;5.20;;
63276;SDS011;49403;51.046;13.780;2023-04-24T00:33:38;7.65;;;5.18;;
63276;SDS011;49403;51.046;13.780;2023-04-24T00:34:09;8.35;;;5.43;;
63276;SDS011;49403;51.046;13.780;2023-04-24T00:34:41;7.28;;;5.10;;
63276;SDS011;49403;51.046;13.780;2023-04-24T00:35:13;8.20;;;5.10;;
63276;SDS011;49403;51.046;13.780;2023-04-24T00:35:44;8.80;;;5.05;;
63276;SDS011;49403;51.046;13.780;2023-04-24T00:36:15;6.63;;;5.10;;
63276;SDS011;49403;51.046;13.780;2023-04-24T00:36:46;6.93;;;5.00;;
63276;SDS011;49403;51.046;13.780;2023-04-24T00:37:19;7.05;;;5.10;;
63276;SDS011;49403;51.046;13.780;2023-04-24T00:37:50;7.43;;;4.85;;
63276;SDS011;49403;51.046;13.780;2023-04-24T00:38:21;7.47;;;4.90;;
63276;SDS011;49403;51.046;13.780;2023-04-24T00:38:52;7.07;;;5.05;;
63276;SDS011;49403;51.046;13.780;2023-04-24T00:39:23;6.63;;;4.80;;
63276;SDS011;49403;51.046;13.780;2023-04-24T00:39:54;6.93;;;4.68;;
63276;SDS011;49403;51.046;13.780;2023-04-24T00:40:27;6.93;;;4.82;;
63276;SDS011;49403;51.046;13.780;2023-04-24T00:40:58;9.00;;;4.90;;
63276;SDS011;49403;51.046;13.780;2023-04-24T00:41:30;9.07;;;4.75;;
63276;SDS011;49403;51.046;13.780;2023-04-24T00:42:01;6.00;;;4.80;;
63276;SDS011;49403;51.046;13.780;2023-04-24T00:42:32;7.78;;;4.88;;
63276;SDS011;49403;51.046;13.780;2023-04-24T00:43:03;5.55;;;4.50;;
63276;SDS011;49403;51.046;13.780;2023-04-24T00:43:34;7.45;;;4.70;;
63276;SDS011;49403;51.046;13.780;2023-04-24T00:44:05;6.53;;;4.80;;
63276;SDS011;49403;51.046;13.780;2023-04-24T00:44:36;6.78;;;4.70;;
63276;SDS011;49403;51.046;13.780;2023-04-24T00:45:08;6.35;;;4.85;;
63276;SDS011;49403;51.046;13.780;2023-04-24T00:45:39;6.70;;;4.45;;
63276;SDS011;49403;51.046;13.780;2023-04-24T00:46:10;6.20;;;4.45;;
63276;SDS011;49403;51.046;13.780;2023-04-24T00:46:42;8.05;;;5.25;;
63276;SDS011;49403;51.046;13.780;2023-04-24T00:47:13;6.95;;;4.75;;
63276;SDS011;49403;51.046;13.780;2023-04-24T00:47:45;8.15;;;4.80;;
63276;SDS011;49403;51.046;13.780;2023-04-24T00:48:16;7.28;;;4.72;;
63276;SDS011;49403;51.046;13.780;2023-04-24T00:48:48;7.47;;;4.70;;
63276;SDS011;49403;51.046;13.780;2023-04-24T00:49:20;6.93;;;4.90;;
63276;SDS011;49403;51.046;13.780;2023-04-24T00:49:52;8.77;;;4.80;;
63276;SDS011;49403;51.046;13.780;2023-04-24T00:50:23;8.68;;;4.78;;
63276;SDS011;49403;51.046;13.780;2023-04-24T00:50:55;7.07;;;5.10;;
63276;SDS011;49403;51.046;13.780;2023-04-24T00:51:27;6.65;;;5.00;;
63276;SDS011;49403;51.046;13.780;2023-04-24T00:51:58;9.80;;;4.47;;
63276;SDS011;49403;51.046;13.780;2023-04-24T00:52:29;8.10;;;5.07;;
63276;SDS011;49403;51.046;13.780;2023-04-24T00:53:02;6.28;;;4.70;;
63276;SDS011;49403;51.046;13.780;2023-04-24T00:53:33;6.70;;;4.80;;
63276;SDS011;49403;51.046;13.780;2023-04-24T00:54:04;7.18;;;4.95;;
63276;SDS011;49403;51.046;13.780;2023-04-24T00:54:35;5.93;;;4.53;;
63276;SDS011;49403;51.046;13.780;2023-04-24T00:55:06;7.50;;;4.97;;
63276;SDS011;49403;51.046;13.780;2023-04-24T00:55:38;6.72;;;4.90;;
63276;SDS011;49403;51.046;13.780;2023-04-24T00:56:09;8.82;;;5.20;;
63276;SDS011;49403;51.046;13.780;2023-04-24T00:56:41;6.15;;;4.70;;
63276;SDS011;49403;51.046;13.780;2023-04-24T00:57:13;6.65;;;4.88;;
63276;SDS011;49403;51.046;13.780;2023-04-24T00:57:45;10.23;;;4.72;;
63276;SDS011;49403;51.046;13.780;2023-04-24T00:58:16;6.90;;;4.97;;
63276;SDS011;49403;51.046;13.780;2023-04-24T00:58:48;6.18;;;4.90;;
63276;SDS011;49403;51.046;13.780;2023-04-24T00:59:19;8.25;;;4.78;;
63276;SDS011;49403;51.046;13.780;2023-04-24T00:59:51;8.15;;;4.88;;
63276;SDS011;49403;51.046;13.780;2023-04-24T01:00:23;6.20;;;4.50;;
63276;SDS011;49403;51.046;13.780;2023-04-24T01:00:54;7.70;;;5.03;;
63276;SDS011;49403;51.046;13.780;2023-04-24T01:01:27;7.57;;;5.00;;
63276;SDS011;49403;51.046;13.780;2023-04-24T01:01:58;6.80;;;4.65;;
63276;SDS011;49403;51.046;13.780;2023-04-24T01:02:29;7.22;;;4.53;;
63276;SDS011;49403;51.046;13.780;2023-04-24T01:03:01;7.07;;;4.63;;
63276;SDS011;49403;51.046;13.780;2023-04-24T01:03:36;6.72;;;4.70;;
63276;SDS011;49403;51.046;13.780;2023-04-24T01:04:07;7.35;;;4.82;;
63276;SDS011;49403;51.046;13.780;2023-04-24T01:04:40;6.85;;;4.97;;
63276;SDS011;49403;51.046;13.780;2023-04-24T01:05:13;7.90;;;4.70;;
63276;SDS011;49403;51.046;13.780;2023-04-24T01:05:45;7.38;;;4.85;;
63276;SDS011;49403;51.046;13.780;2023-04-24T01:06:16;7.55;;;5.00;;
63276;SDS011;49403;51.046;13.780;2023-04-24T01:06:48;6.18;;;4.78;;
63276;SDS011;49403;51.046;13.780;2023-04-24T01:07:20;7.82;;;5.10;;
63276;SDS011;49403;51.046;13.780;2023-04-24T01:07:51;6.22;;;4.85;;
63276;SDS011;49403;51.046;13.780;2023-04-24T01:08:26;6.38;;;4.82;;
63276;SDS011;49403;51.046;13.780;2023-04-24T01:08:59;7.18;;;4.55;;
63276;SDS011;49403;51.046;13.780;2023-04-24T01:09:30;6.47;;;4.63;;
63276;SDS011;49403;51.046;13.780;2023-04-24T01:10:01;7.38;;;4.70;;
63276;SDS011;49403;51.046;13.780;2023-04-24T01:10:33;6.65;;;4.70;;
63276;SDS011;49403;51.046;13.780;2023-04-24T01:11:04;6.85;;;4.78;;
63276;SDS011;49403;51.046;13.780;2023-04-24T01:11:36;9.30;;;5.10;;
63276;SDS011;49403;51.046;13.780;2023-04-24T01:12:07;6.97;;;4.85;;
63276;SDS011;49403;51.046;13.780;2023-04-24T01:12:39;6.53;;;4.68;;
63276;SDS011;49403;51.046;13.780;2023-04-24T01:13:10;6.05;;;4.47;;
63276;SDS011;49403;51.046;13.780;2023-04-24T01:13:41;6.30;;;4.60;;
63276;SDS011;49403;51.046;13.780;2023-04-24T01:14:12;9.52;;;4.80;;
63276;SDS011;49403;51.046;13.780;2023-04-24T01:14:44;5.88;;;4.45;;
63276;SDS011;49403;51.046;13.780;2023-04-24T01:15:15;7.20;;;4.70;;
63276;SDS011;49403;51.046;13.780;2023-04-24T01:15:46;7.50;;;4.80;;
63276;SDS011;49403;51.046;13.780;2023-04-24T01:16:18;6.53;;;4.80;;
63276;SDS011;49403;51.046;13.780;2023-04-24T01:16:50;6.50;;;4.50;;
63276;SDS011;49403;51.046;13.780;2023-04-24T01:17:21;7.60;;;4.82;;
63276;SDS011;49403;51.046;13.780;2023-04-24T01:17:52;6.32;;;4.93;;
63276;SDS011;49403;51.046;13.780;2023-04-24T01:18:23;7.97;;;4.78;;
63276;SDS011;49403;51.046;13.780;2023-04-24T01:18:54;6.65;;;5.03;;
63276;SDS011;49403;51.046;13.780;2023-04-24T01:19:26;6.85;;;4.97;;
63276;SDS011;49403;51.046;13.780;2023-04-24T01:19:57;7.03;;;5.05;;
63276;SDS011;49403;51.046;13.780;2023-04-24T01:20:28;7.97;;;4.90;;
63276;SDS011;49403;51.046;13.780;2023-04-24T01:21:00;8.38;;;5.05;;
63276;SDS011;49403;51.046;13.780;2023-04-24T01:21:34;8.07;;;5.20;;
63276;SDS011;49403;51.046;13.780;2023-04-24T01:22:08;8.20;;;5.00;;
63276;SDS011;49403;51.046;13.780;2023-04-24T01:22:47;5.53;;;4.60;;
63276;SDS011;49403;51.046;13.780;2023-04-24T01:23:18;8.23;;;5.13;;
63276;SDS011;49403;51.046;13.780;2023-04-24T01:23:50;6.15;;;4.90;;
63276;SDS011;49403;51.046;13.780;2023-04-24T01:24:21;6.30;;;4.90;;
63276;SDS011;49403;51.046;13.780;2023-04-24T01:24:52;7.07;;;4.93;;
63276;SDS011;49403;51.046;13.780;2023-04-24T01:25:24;7.72;;;4.78;;
63276;SDS011;49403;51.046;13.780;2023-04-24T01:25:58;8.52;;;4.90;;
63276;SDS011;49403;51.046;13.780;2023-04-24T01:26:29;7.97;;;4.75;;
63276;SDS011;49403;51.046;13.780;2023-04-24T01:27:00;7.20;;;5.25;;
63276;SDS011;49403;51.046;13.780;2023-04-24T01:27:31;8.80;;;5.07;;
63276;SDS011;49403;51.046;13.780;2023-04-24T01:28:02;6.50;;;4.90;;
63276;SDS011;49403;51.046;13.780;2023-04-24T01:28:34;7.63;;;4.80;;
63276;SDS011;49403;51.046;13.780;2023-04-24T01:29:05;8.35;;;5.13;;
63276;SDS011;49403;51.046;13.780;2023-04-24T01:29:36;9.82;;;5.00;;
63276;SDS011;49403;51.046;13.780;2023-04-24T01:30:07;8.73;;;4.80;;
63276;SDS011;49403;51.046;13.780;2023-04-24T01:30:39;6.70;;;5.00;;
63276;SDS011;49403;51.046;13.780;2023-04-24T01:31:10;7.38;;;4.90;;
63276;SDS011;49403;51.046;13.780;2023-04-24T01:31:41;8.63;;;5.10;;
63276;SDS011;49403;51.046;13.780;2023-04-24T01:32:13;9.15;;;5.05;;
63276;SDS011;49403;51.046;13.780;2023-04-24T01:32:44;7.88;;;5.13;;
63276;SDS011;49403;51.046;13.780;2023-04-24T01:33:16;7.38;;;5.18;;
63276;SDS011;49403;51.046;13.780;2023-04-24T01:33:47;6.68;;;4.68;;
63276;SDS011;49403;51.046;13.780;2023-04-24T01:34:19;6.60;;;4.90;;
63276;SDS011;49403;51.046;13.780;2023-04-24T01:34:50;6.53;;;4.80;;
63276;SDS011;49403;51.046;13.780;2023-04-24T01:35:21;6.70;;;4.93;;
63276;SDS011;49403;51.046;13.780;2023-04-24T01:35:52;6.47;;;5.32;;
63276;SDS011;49403;51.046;13.780;2023-04-24T01:36:23;8.15;;;5.30;;
63276;SDS011;49403;51.046;13.780;2023-04-24T01:36:57;8.05;;;4.97;;
63276;SDS011;49403;51.046;13.780;2023-04-24T01:37:28;7.72;;;5.50;;
63276;SDS011;49403;51.046;13.780;2023-04-24T01:37:59;6.78;;;4.90;;
63276;SDS011;49403;51.046;13.780;2023-04-24T01:38:30;8.00;;;5.05;;
63276;SDS011;49403;51.046;13.780;2023-04-24T01:39:01;6.65;;;4.80;;
63276;SDS011;49403;51.046;13.780;2023-04-24T01:39:33;7.35;;;4.93;;
63276;SDS011;49403;51.046;13.780;2023-04-24T01:40:07;8.98;;;5.07;;
63276;SDS011;49403;51.046;13.780;2023-04-24T01:40:38;6.32;;;4.63;;
63276;SDS011;49403;51.046;13.780;2023-04-24T01:41:10;11.00;;;5.57;;
63276;SDS011;49403;51.046;13.780;2023-04-24T01:41:41;8.48;;;5.00;;
63276;SDS011;49403;51.046;13.780;2023-04-24T01:42:12;6.60;;;5.15;;
63276;SDS011;49403;51.046;13.780;2023-04-24T01:42:44;6.78;;;4.80;;
63276;SDS011;49403;51.046;13.780;2023-04-24T01:43:16;10.00;;;5.20;;
63276;SDS011;49403;51.046;13.780;2023-04-24T01:43:47;6.00;;;4.97;;
63276;SDS011;49403;51.046;13.780;2023-04-24T01:44:19;10.68;;;5.10;;
63276;SDS011;49403;51.046;13.780;2023-04-24T01:44:50;7.30;;;5.15;;
63276;SDS011;49403;51.046;13.780;2023-04-24T01:45:21;6.85;;;5.40;;
63276;SDS011;49403;51.046;13.780;2023-04-24T01:45:52;10.38;;;5.40;;
63276;SDS011;49403;51.046;13.780;2023-04-24T01:46:23;8.43;;;5.35;;
63276;SDS011;49403;51.046;13.780;2023-04-24T01:46:55;7.13;;;5.20;;
63276;SDS011;49403;51.046;13.780;2023-04-24T01:47:26;6.93;;;5.40;;
63276;SDS011;49403;51.046;13.780;2023-04-24T01:47:57;8.50;;;5.28;;
63276;SDS011;49403;51.046;13.780;2023-04-24T01:48:28;8.80;;;5.22;;
63276;SDS011;49403;51.046;13.780;2023-04-24T01:49:00;6.22;;;4.70;;
63276;SDS011;49403;51.046;13.780;2023-04-24T01:49:31;7.18;;;4.80;;
63276;SDS011;49403;51.046;13.780;2023-04-24T01:50:03;7.15;;;4.97;;
63276;SDS011;49403;51.046;13.780;2023-04-24T01:50:35;6.50;;;5.07;;
63276;SDS011;49403;51.046;13.780;2023-04-24T01:51:06;7.68;;;5.60;;
63276;SDS011;49403;51.046;13.780;2023-04-24T01:51:37;8.15;;;5.05;;
63276;SDS011;49403;51.046;13.780;2023-04-24T01:52:08;8.88;;;5.10;;
63276;SDS011;49403;51.046;13.780;2023-04-24T01:52:39;10.20;;;4.78;;
63276;SDS011;49403;51.046;13.780;2023-04-24T01:53:10;8.68;;;5.22;;
63276;SDS011;49403;51.046;13.780;2023-04-24T01:53:41;6.22;;;4.78;;
63276;SDS011;49403;51.046;13.780;2023-04-24T01:54:12;6.72;;;4.90;;
63276;SDS011;49403;51.046;13.780;2023-04-24T01:54:43;7.68;;;4.97;;
63276;SDS011;49403;51.046;13.780;2023-04-24T01:55:15;8.68;;;5.20;;
63276;SDS011;49403;51.046;13.780;2023-04-24T01:55:46;8.63;;;4.78;;
63276;SDS011;49403;51.046;13.780;2023-04-24T01:56:17;7.50;;;5.25;;
63276;SDS011;49403;51.046;13.780;2023-04-24T01:56:48;6.20;;;5.00;;
63276;SDS011;49403;51.046;13.780;2023-04-24T01:57:19;7.57;;;5.30;;
63276;SDS011;49403;51.046;13.780;2023-04-24T01:57:52;7.82;;;5.28;;
63276;SDS011;49403;51.046;13.780;2023-04-24T01:58:25;6.40;;;4.70;;
63276;SDS011;49403;51.046;13.780;2023-04-24T01:58:57;9.00;;;5.03;;
63276;SDS011;49403;51.046;13.780;2023-04-24T01:59:28;9.73;;;5.07;;
63276;SDS011;49403;51.046;13.780;2023-04-24T02:00:01;6.20;;;4.90;;
63276;SDS011;49403;51.046;13.780;2023-04-24T02:00:34;7.03;;;4.93;;
63276;SDS011;49403;51.046;13.780;2023-04-24T02:01:06;8.02;;;5.10;;
63276;SDS011;49403;51.046;13.780;2023-04-24T02:01:37;6.32;;;4.80;;
63276;SDS011;49403;51.046;13.780;2023-04-24T02:02:09;6.35;;;4.80;;
63276;SDS011;49403;51.046;13.780;2023-04-24T02:02:40;6.80;;;5.10;;
63276;SDS011;49403;51.046;13.780;2023-04-24T02:03:12;7.85;;;5.20;;
63276;SDS011;49403;51.046;13.780;2023-04-24T02:03:42;6.05;;;4.90;;
63276;SDS011;49403;51.046;13.780;2023-04-24T02:04:13;8.35;;;5.03;;
63276;SDS011;49403;51.046;13.780;2023-04-24T02:04:45;7.97;;;5.00;;
63276;SDS011;49403;51.046;13.780;2023-04-24T02:05:16;6.50;;;5.00;;
63276;SDS011;49403;51.046;13.780;2023-04-24T02:05:47;7.57;;;5.20;;
63276;SDS011;49403;51.046;13.780;2023-04-24T02:06:18;8.32;;;5.22;;
63276;SDS011;49403;51.046;13.780;2023-04-24T02:06:49;7.15;;;5.18;;
63276;SDS011;49403;51.046;13.780;2023-04-24T02:07:20;7.38;;;5.03;;
63276;SDS011;49403;51.046;13.780;2023-04-24T02:07:52;6.88;;;5.28;;
63276;SDS011;49403;51.046;13.780;2023-04-24T02:08:23;10.88;;;5.15;;
63276;SDS011;49403;51.046;13.780;2023-04-24T02:08:54;7.68;;;5.03;;
63276;SDS011;49403;51.046;13.780;2023-04-24T02:09:25;7.78;;;5.38;;
63276;SDS011;49403;51.046;13.780;2023-04-24T02:09:56;7.32;;;5.30;;
63276;SDS011;49403;51.046;13.780;2023-04-24T02:10:27;6.85;;;5.35;;
63276;SDS011;49403;51.046;13.780;2023-04-24T02:10:58;6.63;;;5.32;;
63276;SDS011;49403;51.046;13.780;2023-04-24T02:11:29;7.18;;;5.10;;
63276;SDS011;49403;51.046;13.780;2023-04-24T02:12:00;10.18;;;5.20;;
63276;SDS011;49403;51.046;13.780;2023-04-24T02:12:31;6.65;;;5.05;;
63276;SDS011;49403;51.046;13.780;2023-04-24T02:13:02;7.35;;;5.30;;
63276;SDS011;49403;51.046;13.780;2023-04-24T02:13:33;9.18;;;5.28;;
63276;SDS011;49403;51.046;13.780;2023-04-24T02:14:04;6.72;;;4.80;;
63276;SDS011;49403;51.046;13.780;2023-04-24T02:14:35;8.00;;;5.35;;
63276;SDS011;49403;51.046;13.780;2023-04-24T02:15:06;9.75;;;5.28;;
63276;SDS011;49403;51.046;13.780;2023-04-24T02:15:37;9.40;;;5.47;;
63276;SDS011;49403;51.046;13.780;2023-04-24T02:16:08;7.50;;;5.28;;
63276;SDS011;49403;51.046;13.780;2023-04-24T02:16:39;8.35;;;5.20;;
63276;SDS011;49403;51.046;13.780;2023-04-24T02:17:10;9.07;;;5.00;;
63276;SDS011;49403;51.046;13.780;2023-04-24T02:17:43;8.90;;;5.22;;
63276;SDS011;49403;51.046;13.780;2023-04-24T02:18:14;7.95;;;5.22;;
63276;SDS011;49403;51.046;13.780;2023-04-24T02:18:45;7.70;;;5.13;;
63276;SDS011;49403;51.046;13.780;2023-04-24T02:19:16;9.38;;;4.93;;
63276;SDS011;49403;51.046;13.780;2023-04-24T02:19:47;8.75;;;5.30;;
63276;SDS011;49403;51.046;13.780;2023-04-24T02:20:18;7.25;;;5.13;;
63276;SDS011;49403;51.046;13.780;2023-04-24T02:20:49;8.57;;;5.00;;
63276;SDS011;49403;51.046;13.780;2023-04-24T02:21:20;8.23;;;5.03;;
63276;SDS011;49403;51.046;13.780;2023-04-24T02:21:51;10.30;;;5.25;;
63276;SDS011;49403;51.046;13.780;2023-04-24T02:22:22;9.15;;;5.28;;
63276;SDS011;49403;51.046;13.780;2023-04-24T02:22:53;7.10;;;5.47;;
63276;SDS011;49403;51.046;13.780;2023-04-24T02:23:25;8.00;;;5.25;;
63276;SDS011;49403;51.046;13.780;2023-04-24T02:23:57;7.18;;;5.18;;
63276;SDS011;49403;51.046;13.780;2023-04-24T02:24:28;9.88;;;5.63;;
63276;SDS011;49403;51.046;13.780;2023-04-24T02:25:00;8.15;;;5.28;;
63276;SDS011;49403;51.046;13.780;2023-04-24T02:25:31;7.05;;;5.28;;
63276;SDS011;49403;51.046;13.780;2023-04-24T02:26:03;7.00;;;4.80;;
63276;SDS011;49403;51.046;13.780;2023-04-24T02:26:34;7.75;;;4.97;;
63276;SDS011;49403;51.046;13.780;2023-04-24T02:27:05;7.82;;;5.47;;
63276;SDS011;49403;51.046;13.780;2023-04-24T02:27:36;6.93;;;4.93;;
63276;SDS011;49403;51.046;13.780;2023-04-24T02:28:07;6.57;;;5.15;;
63276;SDS011;49403;51.046;13.780;2023-04-24T02:28:38;10.68;;;5.30;;
63276;SDS011;49403;51.046;13.780;2023-04-24T02:29:09;7.53;;;5.25;;
63276;SDS011;49403;51.046;13.780;2023-04-24T02:29:40;9.63;;;5.35;;
63276;SDS011;49403;51.046;13.780;2023-04-24T02:30:12;7.60;;;4.65;;
63276;SDS011;49403;51.046;13.780;2023-04-24T02:30:43;6.20;;;4.93;;
63276;SDS011;49403;51.046;13.780;2023-04-24T02:31:14;8.25;;;5.43;;
63276;SDS011;49403;51.046;13.780;2023-04-24T02:31:45;6.50;;;4.90;;
63276;SDS011;49403;51.046;13.780;2023-04-24T02:32:16;8.20;;;5.25;;
63276;SDS011;49403;51.046;13.780;2023-04-24T02:32:47;7.40;;;5.00;;
63276;SDS011;49403;51.046;13.780;2023-04-24T02:33:18;7.07;;;5.30;;
63276;SDS011;49403;51.046;13.780;2023-04-24T02:33:49;7.75;;;5.63;;
63276;SDS011;49403;51.046;13.780;2023-04-24T02:34:21;6.97;;;5.70;;
63276;SDS011;49403;51.046;13.780;2023-04-24T02:34:53;6.63;;;5.20;;
63276;SDS011;49403;51.046;13.780;2023-04-24T02:35:24;9.20;;;5.30;;
63276;SDS011;49403;51.046;13.780;2023-04-24T02:35:55;8.10;;;5.28;;
63276;SDS011;49403;51.046;13.780;2023-04-24T02:36:26;8.48;;;5.18;;
63276;SDS011;49403;51.046;13.780;2023-04-24T02:36:57;10.48;;;5.50;;
63276;SDS011;49403;51.046;13.780;2023-04-24T02:37:28;6.95;;;5.28;;
63276;SDS011;49403;51.046;13.780;2023-04-24T02:37:59;7.32;;;5.18;;
63276;SDS011;49403;51.046;13.780;2023-04-24T02:38:30;9.07;;;5.20;;
63276;SDS011;49403;51.046;13.780;2023-04-24T02:39:01;8.48;;;5.05;;
63276;SDS011;49403;51.046;13.780;2023-04-24T02:39:33;8.57;;;5.30;;
63276;SDS011;49403;51.046;13.780;2023-04-24T02:40:04;8.75;;;5.28;;
63276;SDS011;49403;51.046;13.780;2023-04-24T02:40:36;8.02;;;5.10;;
63276;SDS011;49403;51.046;13.780;2023-04-24T02:41:07;8.25;;;5.40;;
63276;SDS011;49403;51.046;13.780;2023-04-24T02:41:38;6.97;;;5.35;;
63276;SDS011;49403;51.046;13.780;2023-04-24T02:42:09;8.93;;;5.03;;
63276;SDS011;49403;51.046;13.780;2023-04-24T02:42:40;9.50;;;5.25;;
63276;SDS011;49403;51.046;13.780;2023-04-24T02:43:11;8.68;;;5.07;;
63276;SDS011;49403;51.046;13.780;2023-04-24T02:43:42;11.52;;;5.57;;
63276;SDS011;49403;51.046;13.780;2023-04-24T02:44:13;8.35;;;5.22;;
63276;SDS011;49403;51.046;13.780;2023-04-24T02:44:44;8.27;;;5.25;;
63276;SDS011;49403;51.046;13.780;2023-04-24T02:45:15;7.65;;;5.05;;
63276;SDS011;49403;51.046;13.780;2023-04-24T02:45:46;7.13;;;5.30;;
63276;SDS011;49403;51.046;13.780;2023-04-24T02:46:17;6.88;;;5.28;;
63276;SDS011;49403;51.046;13.780;2023-04-24T02:46:48;9.25;;;5.50;;
63276;SDS011;49403;51.046;13.780;2023-04-24T02:47:19;8.05;;;5.43;;
63276;SDS011;49403;51.046;13.780;2023-04-24T02:47:50;7.30;;;5.20;;
63276;SDS011;49403;51.046;13.780;2023-04-24T02:48:21;7.03;;;5.05;;
63276;SDS011;49403;51.046;13.780;2023-04-24T02:48:53;9.20;;;5.45;;
63276;SDS011;49403;51.046;13.780;2023-04-24T02:49:24;7.18;;;5.35;;
63276;SDS011;49403;51.046;13.780;2023-04-24T02:49:56;7.20;;;5.70;;
63276;SDS011;49403;51.046;13.780;2023-04-24T02:50:27;7.40;;;5.40;;
63276;SDS011;49403;51.046;13.780;2023-04-24T02:50:58;8.73;;;5.28;;
63276;SDS011;49403;51.046;13.780;2023-04-24T02:51:29;8.50;;;5.47;;
63276;SDS011;49403;51.046;13.780;2023-04-24T02:52:01;7.13;;;5.35;;
63276;SDS011;49403;51.046;13.780;2023-04-24T02:52:32;9.45;;;5.43;;
63276;SDS011;49403;51.046;13.780;2023-04-24T02:53:03;9.20;;;5.57;;
63276;SDS011;49403;51.046;13.780;2023-04-24T02:53:34;8.68;;;5.75;;
63276;SDS011;49403;51.046;13.780;2023-04-24T02:54:05;8.43;;;5.25;;
63276;SDS011;49403;51.046;13.780;2023-04-24T02:54:36;7.03;;;5.53;;
63276;SDS011;49403;51.046;13.780;2023-04-24T02:55:07;9.68;;;5.60;;
63276;SDS011;49403;51.046;13.780;2023-04-24T02:55:38;9.68;;;5.47;;
63276;SDS011;49403;51.046;13.780;2023-04-24T02:56:09;7.75;;;5.47;;
63276;SDS011;49403;51.046;13.780;2023-04-24T02:56:42;7.60;;;5.13;;
63276;SDS011;49403;51.046;13.780;2023-04-24T02:57:13;7.85;;;4.93;;
63276;SDS011;49403;51.046;13.780;2023-04-24T02:57:45;8.68;;;5.28;;
63276;SDS011;49403;51.046;13.780;2023-04-24T02:58:16;8.48;;;6.13;;
63276;SDS011;49403;51.046;13.780;2023-04-24T02:58:47;12.43;;;9.15;;
63276;SDS011;49403;51.046;13.780;2023-04-24T02:59:18;9.13;;;6.93;;
63276;SDS011;49403;51.046;13.780;2023-04-24T02:59:49;10.43;;;5.57;;
63276;SDS011;49403;51.046;13.780;2023-04-24T03:00:20;8.68;;;5.45;;
63276;SDS011;49403;51.046;13.780;2023-04-24T03:00:54;9.07;;;5.50;;
63276;SDS011;49403;51.046;13.780;2023-04-24T03:01:26;7.63;;;4.93;;
63276;SDS011;49403;51.046;13.780;2023-04-24T03:01:57;8.50;;;5.38;;
63276;SDS011;49403;51.046;13.780;2023-04-24T03:02:28;6.82;;;4.90;;
63276;SDS011;49403;51.046;13.780;2023-04-24T03:02:59;10.27;;;5.55;;
63276;SDS011;49403;51.046;13.780;2023-04-24T03:03:30;10.60;;;5.18;;
63276;SDS011;49403;51.046;13.780;2023-04-24T03:04:01;7.45;;;5.25;;
63276;SDS011;49403;51.046;13.780;2023-04-24T03:04:32;11.10;;;5.30;;
63276;SDS011;49403;51.046;13.780;2023-04-24T03:05:03;8.57;;;5.45;;
63276;SDS011;49403;51.046;13.780;2023-04-24T03:05:35;7.85;;;5.38;;
63276;SDS011;49403;51.046;13.780;2023-04-24T03:06:06;7.70;;;5.20;;